Quesnel Airport
CYQZ : rendu visible

Aérodrome :











RETROUVEZ-NOUS SUR...

 
LOGIN :

S'inscrire | Disclaimer

   EN    FR    IT 

 









Légende :    VFR   VFR Marginal   IFR   IFR Intensif   IFR Très Intensif
Visi : 
Plafond : 
>= 8 km
>= 3000ft
5 à 8 km
1000 à 3000 ft
1500m à 5 km
500 à 1000 ft
800 à 1500m
200 à 500 ft
< 800m
< 200 ft
Symboles :   Orages  Brouillard  Fortes neiges  Fortes précipitations  Vent > 20 kt






- Altitude de l'aérodrome : 1789 ft
- Code IATA : YQZ


CYQZ - Quesnel

DERNIER METAR :
  • 310801Z AUTO VRB02KT 5SM -RA BR SCT060 OVC076 14/13 A2962 RMK SLP036 DENSITY ALT 2400FT

METARs EXPIRÉS :
  • 310738Z AUTO 34004KT 330V040 7SM -RA FEW012 BKN060 OVC072 15/13 A2962 RMK SLP035 DENSITY ALT 2500FT
  • 310719Z AUTO VRB02KT 2 1/2SM RA BR SCT009 SCT015 BKN029 OVC049 15/15 A2962 RMK VIS VRB 1 1/2-3 SLP037 DENSITY ALT 2500FT
  • 310713Z AUTO 30005KT 4SM +RA BR SCT011 BKN029 BKN040 OVC055 15/15 A2962 RMK SLP037 DENSITY ALT 2500FT
  • 310611Z AUTO VRB02KT 9SM -RA BKN031 OVC080 14/14 A2963 RMK SLP038 DENSITY ALT 2400FT
  • 310600Z AUTO VRB02KT 9SM SCT031 BKN080 OVC120 14/14 A2963 RMK SLP039 DENSITY ALT 2400FT

Prévision TAF périmée.
FIR CZVR / Amérique du Nord



MET'MAP, la Météo Aéronautique d'un coup d'oeil ! - Copyright ORBIFLY Décembre 2007 - Disclaimer

ORBIFLY MET'MAP TEAM :

Programmation & Développement : Alexandra Zaïnal
Sur une idée originale de : Baudouin d'Aumeries
Assistance à la programmation : Marc-Olivier Méhu
Soutien technique & logistique : Manuel Goepfert

Contact : metmap@orbifly.com




SOURCES & CREDITS :

   NOAA       Earth
Advisory